sensor_id;sensor_type;location;lat;lon;timestamp;temperature;humidity
12971;DHT22;6550;48.650;8.774;2023-07-09T00:01:51;18.70;99.90
12971;DHT22;6550;48.650;8.774;2023-07-09T00:04:20;18.60;99.90
12971;DHT22;6550;48.650;8.774;2023-07-09T00:06:47;18.60;99.90
12971;DHT22;6550;48.650;8.774;2023-07-09T00:09:18;18.70;99.90
12971;DHT22;6550;48.650;8.774;2023-07-09T00:11:46;18.50;99.90
12971;DHT22;6550;48.650;8.774;2023-07-09T00:14:17;18.80;99.90
12971;DHT22;6550;48.650;8.774;2023-07-09T00:16:45;18.40;99.90
12971;DHT22;6550;48.650;8.774;2023-07-09T00:19:20;18.50;99.90
12971;DHT22;6550;48.650;8.774;2023-07-09T00:21:53;18.50;99.90
12971;DHT22;6550;48.650;8.774;2023-07-09T00:24:22;18.50;99.90
12971;DHT22;6550;48.650;8.774;2023-07-09T00:26:50;18.60;99.90
12971;DHT22;6550;48.650;8.774;2023-07-09T00:29:19;18.40;99.90
12971;DHT22;6550;48.650;8.774;2023-07-09T00:31:46;18.40;99.90
12971;DHT22;6550;48.650;8.774;2023-07-09T00:34:14;17.90;99.90
12971;DHT22;6550;48.650;8.774;2023-07-09T00:36:43;18.10;99.90
12971;DHT22;6550;48.650;8.774;2023-07-09T00:39:21;18.20;99.90
12971;DHT22;6550;48.650;8.774;2023-07-09T00:41:51;18.20;99.90
12971;DHT22;6550;48.650;8.774;2023-07-09T00:44:31;18.20;99.90
12971;DHT22;6550;48.650;8.774;2023-07-09T00:49:37;18.10;99.90
12971;DHT22;6550;48.650;8.774;2023-07-09T00:52:31;18.20;99.90
12971;DHT22;6550;48.650;8.774;2023-07-09T00:55:09;18.10;99.90
12971;DHT22;6550;48.650;8.774;2023-07-09T00:57:39;18.20;99.90
12971;DHT22;6550;48.650;8.774;2023-07-09T01:00:12;18.10;99.90
12971;DHT22;6550;48.650;8.774;2023-07-09T01:02:48;18.10;99.90
12971;DHT22;6550;48.650;8.774;2023-07-09T01:05:18;17.40;99.90
12971;DHT22;6550;48.650;8.774;2023-07-09T01:07:47;17.80;99.90
12971;DHT22;6550;48.650;8.774;2023-07-09T01:10:16;17.70;99.90
12971;DHT22;6550;48.650;8.774;2023-07-09T01:12:48;17.80;99.90
12971;DHT22;6550;48.650;8.774;2023-07-09T01:15:16;18.10;99.90
12971;DHT22;6550;48.650;8.774;2023-07-09T01:17:45;18.30;99.90
12971;DHT22;6550;48.650;8.774;2023-07-09T01:20:17;18.00;99.90
12971;DHT22;6550;48.650;8.774;2023-07-09T01:22:49;18.00;99.90
12971;DHT22;6550;48.650;8.774;2023-07-09T01:25:16;18.00;99.90
12971;DHT22;6550;48.650;8.774;2023-07-09T01:27:46;17.80;99.90
12971;DHT22;6550;48.650;8.774;2023-07-09T01:30:25;17.40;99.90
12971;DHT22;6550;48.650;8.774;2023-07-09T01:32:56;17.50;99.90
12971;DHT22;6550;48.650;8.774;2023-07-09T01:35:25;17.70;99.90
12971;DHT22;6550;48.650;8.774;2023-07-09T01:37:52;17.60;99.90
12971;DHT22;6550;48.650;8.774;2023-07-09T01:40:23;17.80;99.90
12971;DHT22;6550;48.650;8.774;2023-07-09T01:43:03;17.70;99.90
12971;DHT22;6550;48.650;8.774;2023-07-09T01:45:34;18.40;99.90
12971;DHT22;6550;48.650;8.774;2023-07-09T01:48:04;17.60;99.90
12971;DHT22;6550;48.650;8.774;2023-07-09T01:50:31;17.60;99.90
12971;DHT22;6550;48.650;8.774;2023-07-09T01:52:58;17.60;99.90
12971;DHT22;6550;48.650;8.774;2023-07-09T01:55:25;18.00;99.90
12971;DHT22;6550;48.650;8.774;2023-07-09T01:57:54;17.50;99.90
12971;DHT22;6550;48.650;8.774;2023-07-09T02:00:23;17.60;99.90
12971;DHT22;6550;48.650;8.774;2023-07-09T02:02:50;17.60;99.90
12971;DHT22;6550;48.650;8.774;2023-07-09T02:05:18;17.70;99.90
12971;DHT22;6550;48.650;8.774;2023-07-09T02:07:50;17.50;99.90
12971;DHT22;6550;48.650;8.774;2023-07-09T02:10:17;17.50;99.90
12971;DHT22;6550;48.650;8.774;2023-07-09T02:12:45;17.40;99.90
12971;DHT22;6550;48.650;8.774;2023-07-09T02:15:12;17.30;99.90
12971;DHT22;6550;48.650;8.774;2023-07-09T02:17:39;17.30;99.90
12971;DHT22;6550;48.650;8.774;2023-07-09T02:20:07;17.30;99.90
12971;DHT22;6550;48.650;8.774;2023-07-09T02:22:35;17.30;99.90
12971;DHT22;6550;48.650;8.774;2023-07-09T02:25:05;17.10;99.90
12971;DHT22;6550;48.650;8.774;2023-07-09T02:27:36;17.30;99.90
12971;DHT22;6550;48.650;8.774;2023-07-09T02:30:04;17.30;99.90
12971;DHT22;6550;48.650;8.774;2023-07-09T02:32:34;17.10;99.90
12971;DHT22;6550;48.650;8.774;2023-07-09T02:35:01;16.80;99.90
12971;DHT22;6550;48.650;8.774;2023-07-09T02:37:30;16.70;99.90
12971;DHT22;6550;48.650;8.774;2023-07-09T02:40:00;16.80;99.90
12971;DHT22;6550;48.650;8.774;2023-07-09T02:42:30;16.80;99.90
12971;DHT22;6550;48.650;8.774;2023-07-09T02:44:57;17.80;99.90
12971;DHT22;6550;48.650;8.774;2023-07-09T02:47:24;17.20;99.90
12971;DHT22;6550;48.650;8.774;2023-07-09T02:49:51;16.60;99.90
12971;DHT22;6550;48.650;8.774;2023-07-09T02:52:20;17.00;99.90
12971;DHT22;6550;48.650;8.774;2023-07-09T02:54:47;16.90;99.90
12971;DHT22;6550;48.650;8.774;2023-07-09T02:57:19;16.80;99.90
12971;DHT22;6550;48.650;8.774;2023-07-09T02:59:49;16.80;99.90
12971;DHT22;6550;48.650;8.774;2023-07-09T03:02:16;16.80;99.90
12971;DHT22;6550;48.650;8.774;2023-07-09T03:04:47;16.90;99.90
12971;DHT22;6550;48.650;8.774;2023-07-09T03:07:16;16.70;99.90
12971;DHT22;6550;48.650;8.774;2023-07-09T03:09:43;16.80;99.90
12971;DHT22;6550;48.650;8.774;2023-07-09T03:12:10;16.70;99.90
12971;DHT22;6550;48.650;8.774;2023-07-09T03:14:37;16.70;99.90
12971;DHT22;6550;48.650;8.774;2023-07-09T03:17:04;16.90;99.90
12971;DHT22;6550;48.650;8.774;2023-07-09T03:22:03;16.70;99.90
12971;DHT22;6550;48.650;8.774;2023-07-09T03:24:32;16.80;99.90
12971;DHT22;6550;48.650;8.774;2023-07-09T03:26:59;16.80;99.90
12971;DHT22;6550;48.650;8.774;2023-07-09T03:29:26;16.70;99.90
12971;DHT22;6550;48.650;8.774;2023-07-09T03:31:57;16.50;99.90
12971;DHT22;6550;48.650;8.774;2023-07-09T03:34:24;16.40;99.90
12971;DHT22;6550;48.650;8.774;2023-07-09T03:39:20;16.70;99.90
12971;DHT22;6550;48.650;8.774;2023-07-09T03:41:47;16.50;99.90
12971;DHT22;6550;48.650;8.774;2023-07-09T03:44:14;16.50;99.90
12971;DHT22;6550;48.650;8.774;2023-07-09T03:46:45;16.40;99.90
12971;DHT22;6550;48.650;8.774;2023-07-09T03:49:12;16.40;99.90
12971;DHT22;6550;48.650;8.774;2023-07-09T03:51:39;16.80;99.90
12971;DHT22;6550;48.650;8.774;2023-07-09T03:54:06;16.40;99.90
12971;DHT22;6550;48.650;8.774;2023-07-09T03:56:35;16.50;99.90
12971;DHT22;6550;48.650;8.774;2023-07-09T03:59:06;16.20;99.90
12971;DHT22;6550;48.650;8.774;2023-07-09T04:01:32;16.40;99.90
12971;DHT22;6550;48.650;8.774;2023-07-09T04:03:59;16.10;99.90
12971;DHT22;6550;48.650;8.774;2023-07-09T04:06:26;16.20;99.90
12971;DHT22;6550;48.650;8.774;2023-07-09T04:08:53;16.40;99.90
12971;DHT22;6550;48.650;8.774;2023-07-09T04:11:20;17.50;99.90
12971;DHT22;6550;48.650;8.774;2023-07-09T04:13:46;16.70;99.90
12971;DHT22;6550;48.650;8.774;2023-07-09T04:16:16;16.40;99.90
12971;DHT22;6550;48.650;8.774;2023-07-09T04:18:42;16.80;99.90
12971;DHT22;6550;48.650;8.774;2023-07-09T04:21:09;16.60;99.90
12971;DHT22;6550;48.650;8.774;2023-07-09T04:23:38;16.60;99.90
12971;DHT22;6550;48.650;8.774;2023-07-09T04:26:12;16.60;99.90
12971;DHT22;6550;48.650;8.774;2023-07-09T04:28:39;16.40;99.90
12971;DHT22;6550;48.650;8.774;2023-07-09T04:31:06;16.50;99.90
12971;DHT22;6550;48.650;8.774;2023-07-09T04:33:33;16.60;99.90
12971;DHT22;6550;48.650;8.774;2023-07-09T04:36:02;16.40;99.90
12971;DHT22;6550;48.650;8.774;2023-07-09T04:38:32;16.60;99.90
12971;DHT22;6550;48.650;8.774;2023-07-09T04:41:02;16.90;99.90
12971;DHT22;6550;48.650;8.774;2023-07-09T04:43:30;17.00;99.90
12971;DHT22;6550;48.650;8.774;2023-07-09T04:45:58;17.00;99.90
12971;DHT22;6550;48.650;8.774;2023-07-09T04:48:27;17.00;99.90
12971;DHT22;6550;48.650;8.774;2023-07-09T04:50:57;17.60;99.90
12971;DHT22;6550;48.650;8.774;2023-07-09T04:53:23;16.60;99.90
12971;DHT22;6550;48.650;8.774;2023-07-09T04:55:53;16.90;99.90
12971;DHT22;6550;48.650;8.774;2023-07-09T04:58:19;17.10;99.90
12971;DHT22;6550;48.650;8.774;2023-07-09T05:03:14;17.30;99.90
12971;DHT22;6550;48.650;8.774;2023-07-09T05:05:45;17.40;99.90
12971;DHT22;6550;48.650;8.774;2023-07-09T05:08:13;17.80;99.90
12971;DHT22;6550;48.650;8.774;2023-07-09T05:10:49;17.70;99.90
12971;DHT22;6550;48.650;8.774;2023-07-09T05:13:17;18.10;99.90
12971;DHT22;6550;48.650;8.774;2023-07-09T05:15:46;17.80;99.90
12971;DHT22;6550;48.650;8.774;2023-07-09T05:18:14;18.10;99.90
12971;DHT22;6550;48.650;8.774;2023-07-09T05:20:41;17.40;99.90
12971;DHT22;6550;48.650;8.774;2023-07-09T05:23:09;17.70;99.90
12971;DHT22;6550;48.650;8.774;2023-07-09T05:25:36;17.60;99.90
12971;DHT22;6550;48.650;8.774;2023-07-09T05:28:05;17.80;99.90
12971;DHT22;6550;48.650;8.774;2023-07-09T05:32:59;18.20;99.90
12971;DHT22;6550;48.650;8.774;2023-07-09T05:35:27;18.40;99.90
12971;DHT22;6550;48.650;8.774;2023-07-09T05:37:55;19.00;99.90
12971;DHT22;6550;48.650;8.774;2023-07-09T05:45:16;19.20;99.90
12971;DHT22;6550;48.650;8.774;2023-07-09T05:47:43;19.40;99.90
12971;DHT22;6550;48.650;8.774;2023-07-09T05:50:13;19.70;99.90
12971;DHT22;6550;48.650;8.774;2023-07-09T05:52:42;20.00;99.90
12971;DHT22;6550;48.650;8.774;2023-07-09T05:55:09;20.30;99.90
12971;DHT22;6550;48.650;8.774;2023-07-09T05:57:38;20.30;99.90
12971;DHT22;6550;48.650;8.774;2023-07-09T06:00:08;20.40;99.90
12971;DHT22;6550;48.650;8.774;2023-07-09T06:02:41;20.50;99.90
12971;DHT22;6550;48.650;8.774;2023-07-09T06:10:06;20.90;99.90
12971;DHT22;6550;48.650;8.774;2023-07-09T06:12:34;21.10;99.90
12971;DHT22;6550;48.650;8.774;2023-07-09T06:15:02;21.00;99.90
12971;DHT22;6550;48.650;8.774;2023-07-09T06:17:32;21.30;99.90
12971;DHT22;6550;48.650;8.774;2023-07-09T06:19:59;21.40;99.90
12971;DHT22;6550;48.650;8.774;2023-07-09T06:22:28;21.50;99.90
12971;DHT22;6550;48.650;8.774;2023-07-09T06:24:55;21.60;99.90
12971;DHT22;6550;48.650;8.774;2023-07-09T06:27:24;21.70;99.90
12971;DHT22;6550;48.650;8.774;2023-07-09T06:29:51;21.80;99.90
12971;DHT22;6550;48.650;8.774;2023-07-09T06:32:20;21.90;99.90
12971;DHT22;6550;48.650;8.774;2023-07-09T06:34:47;22.00;99.90
12971;DHT22;6550;48.650;8.774;2023-07-09T06:37:14;22.00;99.90
12971;DHT22;6550;48.650;8.774;2023-07-09T06:42:08;22.20;99.90
12971;DHT22;6550;48.650;8.774;2023-07-09T06:44:35;22.30;99.90
12971;DHT22;6550;48.650;8.774;2023-07-09T06:49:33;22.40;99.90
12971;DHT22;6550;48.650;8.774;2023-07-09T06:52:03;22.60;99.90
12971;DHT22;6550;48.650;8.774;2023-07-09T06:54:30;22.70;99.90
12971;DHT22;6550;48.650;8.774;2023-07-09T06:59:26;23.10;99.90
12971;DHT22;6550;48.650;8.774;2023-07-09T07:01:53;23.20;99.90
12971;DHT22;6550;48.650;8.774;2023-07-09T07:04:22;23.60;99.90
12971;DHT22;6550;48.650;8.774;2023-07-09T07:06:51;23.90;99.30
12971;DHT22;6550;48.650;8.774;2023-07-09T07:09:21;24.10;98.60
12971;DHT22;6550;48.650;8.774;2023-07-09T07:11:50;24.10;98.60
12971;DHT22;6550;48.650;8.774;2023-07-09T07:14:17;24.30;96.90
12971;DHT22;6550;48.650;8.774;2023-07-09T07:16:43;24.50;97.20
12971;DHT22;6550;48.650;8.774;2023-07-09T07:19:13;25.10;95.50
12971;DHT22;6550;48.650;8.774;2023-07-09T07:21:39;25.20;94.30
12971;DHT22;6550;48.650;8.774;2023-07-09T07:24:06;25.30;94.40
12971;DHT22;6550;48.650;8.774;2023-07-09T07:26:35;25.60;93.20
12971;DHT22;6550;48.650;8.774;2023-07-09T07:29:02;25.50;92.40
12971;DHT22;6550;48.650;8.774;2023-07-09T07:31:31;25.70;92.30
12971;DHT22;6550;48.650;8.774;2023-07-09T07:33:58;27.60;92.00
12971;DHT22;6550;48.650;8.774;2023-07-09T07:36:25;26.40;91.80
12971;DHT22;6550;48.650;8.774;2023-07-09T07:38:57;26.70;90.10
12971;DHT22;6550;48.650;8.774;2023-07-09T07:41:25;26.70;88.60
12971;DHT22;6550;48.650;8.774;2023-07-09T07:43:52;26.60;89.10
12971;DHT22;6550;48.650;8.774;2023-07-09T07:46:21;26.60;90.60
12971;DHT22;6550;48.650;8.774;2023-07-09T07:48:48;26.80;90.70
12971;DHT22;6550;48.650;8.774;2023-07-09T07:51:15;26.70;90.90
12971;DHT22;6550;48.650;8.774;2023-07-09T07:56:09;27.30;88.20
12971;DHT22;6550;48.650;8.774;2023-07-09T08:01:08;27.50;84.90
12971;DHT22;6550;48.650;8.774;2023-07-09T08:03:35;27.40;85.00
12971;DHT22;6550;48.650;8.774;2023-07-09T08:06:02;27.10;83.00
12971;DHT22;6550;48.650;8.774;2023-07-09T08:08:30;27.30;82.50
12971;DHT22;6550;48.650;8.774;2023-07-09T08:11:01;27.30;81.40
12971;DHT22;6550;48.650;8.774;2023-07-09T08:13:33;27.70;82.20
12971;DHT22;6550;48.650;8.774;2023-07-09T08:16:03;28.10;81.20
12971;DHT22;6550;48.650;8.774;2023-07-09T08:18:30;28.20;80.10
12971;DHT22;6550;48.650;8.774;2023-07-09T08:20:59;28.20;76.20
12971;DHT22;6550;48.650;8.774;2023-07-09T08:23:30;28.20;76.10
12971;DHT22;6550;48.650;8.774;2023-07-09T08:25:59;28.10;75.80
12971;DHT22;6550;48.650;8.774;2023-07-09T08:28:30;28.50;77.50
12971;DHT22;6550;48.650;8.774;2023-07-09T08:31:00;28.70;76.40
12971;DHT22;6550;48.650;8.774;2023-07-09T08:33:28;28.90;74.70
12971;DHT22;6550;48.650;8.774;2023-07-09T08:35:54;28.70;75.40
12971;DHT22;6550;48.650;8.774;2023-07-09T08:38:22;28.70;74.20
12971;DHT22;6550;48.650;8.774;2023-07-09T08:41:07;29.10;73.30
12971;DHT22;6550;48.650;8.774;2023-07-09T08:43:50;29.60;73.40
12971;DHT22;6550;48.650;8.774;2023-07-09T08:46:30;29.00;73.40
12971;DHT22;6550;48.650;8.774;2023-07-09T08:49:03;29.00;73.70
12971;DHT22;6550;48.650;8.774;2023-07-09T08:51:41;29.20;73.10
12971;DHT22;6550;48.650;8.774;2023-07-09T08:54:25;29.20;71.10
12971;DHT22;6550;48.650;8.774;2023-07-09T08:57:02;29.30;69.50
12971;DHT22;6550;48.650;8.774;2023-07-09T08:59:36;29.30;71.40
12971;DHT22;6550;48.650;8.774;2023-07-09T09:02:05;29.20;70.40
12971;DHT22;6550;48.650;8.774;2023-07-09T09:07:33;29.50;69.90
12971;DHT22;6550;48.650;8.774;2023-07-09T09:10:03;29.20;71.60
12971;DHT22;6550;48.650;8.774;2023-07-09T09:15:14;29.80;69.00
12971;DHT22;6550;48.650;8.774;2023-07-09T09:17:44;29.70;69.00
12971;DHT22;6550;48.650;8.774;2023-07-09T09:20:16;29.30;70.10
12971;DHT22;6550;48.650;8.774;2023-07-09T09:22:58;29.80;69.20
12971;DHT22;6550;48.650;8.774;2023-07-09T09:25:32;29.70;69.30
12971;DHT22;6550;48.650;8.774;2023-07-09T09:28:02;29.20;68.40
12971;DHT22;6550;48.650;8.774;2023-07-09T09:30:32;29.80;65.30
12971;DHT22;6550;48.650;8.774;2023-07-09T09:33:07;29.80;66.40
12971;DHT22;6550;48.650;8.774;2023-07-09T09:35:43;30.50;65.30
12971;DHT22;6550;48.650;8.774;2023-07-09T09:38:19;30.30;64.50
12971;DHT22;6550;48.650;8.774;2023-07-09T09:40:47;30.40;64.50
12971;DHT22;6550;48.650;8.774;2023-07-09T09:43:16;30.60;64.10
12971;DHT22;6550;48.650;8.774;2023-07-09T09:45:50;31.00;64.50
12971;DHT22;6550;48.650;8.774;2023-07-09T09:48:26;30.90;62.90
12971;DHT22;6550;48.650;8.774;2023-07-09T09:50:54;30.60;65.20
12971;DHT22;6550;48.650;8.774;2023-07-09T09:53:24;30.60;62.40
12971;DHT22;6550;48.650;8.774;2023-07-09T09:55:55;30.80;61.70
12971;DHT22;6550;48.650;8.774;2023-07-09T09:58:30;30.80;64.00
12971;DHT22;6550;48.650;8.774;2023-07-09T10:00:59;30.90;62.00
12971;DHT22;6550;48.650;8.774;2023-07-09T10:03:38;30.60;62.30
12971;DHT22;6550;48.650;8.774;2023-07-09T10:11:59;31.40;59.00
12971;DHT22;6550;48.650;8.774;2023-07-09T10:14:40;31.40;59.90
12971;DHT22;6550;48.650;8.774;2023-07-09T10:22:43;31.70;57.90
12971;DHT22;6550;48.650;8.774;2023-07-09T10:25:38;31.40;58.80
12971;DHT22;6550;48.650;8.774;2023-07-09T10:33:16;31.50;56.70
12971;DHT22;6550;48.650;8.774;2023-07-09T10:41:11;31.60;56.20
12971;DHT22;6550;48.650;8.774;2023-07-09T10:46:27;31.60;57.60
12971;DHT22;6550;48.650;8.774;2023-07-09T10:48:56;31.90;55.70
12971;DHT22;6550;48.650;8.774;2023-07-09T10:51:28;31.90;56.50
12971;DHT22;6550;48.650;8.774;2023-07-09T10:53:57;31.70;56.80
12971;DHT22;6550;48.650;8.774;2023-07-09T10:56:30;31.70;56.40
12971;DHT22;6550;48.650;8.774;2023-07-09T11:01:42;32.30;54.90
12971;DHT22;6550;48.650;8.774;2023-07-09T11:04:37;32.40;54.10
12971;DHT22;6550;48.650;8.774;2023-07-09T11:07:11;32.00;52.90
12971;DHT22;6550;48.650;8.774;2023-07-09T11:09:43;32.00;54.60
12971;DHT22;6550;48.650;8.774;2023-07-09T11:12:24;32.40;53.50
12971;DHT22;6550;48.650;8.774;2023-07-09T11:17:28;32.70;53.00
12971;DHT22;6550;48.650;8.774;2023-07-09T11:20:16;32.60;54.30
12971;DHT22;6550;48.650;8.774;2023-07-09T11:23:01;32.70;54.00
12971;DHT22;6550;48.650;8.774;2023-07-09T11:25:45;32.90;54.30
12971;DHT22;6550;48.650;8.774;2023-07-09T11:28:13;32.90;53.30
12971;DHT22;6550;48.650;8.774;2023-07-09T11:30:57;32.30;55.30
12971;DHT22;6550;48.650;8.774;2023-07-09T11:33:31;32.70;54.70
12971;DHT22;6550;48.650;8.774;2023-07-09T11:36:10;32.60;56.70
12971;DHT22;6550;48.650;8.774;2023-07-09T11:38:45;32.90;53.70
12971;DHT22;6550;48.650;8.774;2023-07-09T11:41:40;32.90;52.10
12971;DHT22;6550;48.650;8.774;2023-07-09T11:44:23;33.10;52.80
12971;DHT22;6550;48.650;8.774;2023-07-09T11:49:25;33.20;53.60
12971;DHT22;6550;48.650;8.774;2023-07-09T11:51:57;33.30;52.50
12971;DHT22;6550;48.650;8.774;2023-07-09T11:54:25;33.20;51.50
12971;DHT22;6550;48.650;8.774;2023-07-09T11:56:59;32.70;52.90
12971;DHT22;6550;48.650;8.774;2023-07-09T11:59:30;32.80;51.20
12971;DHT22;6550;48.650;8.774;2023-07-09T12:02:00;32.60;50.20
12971;DHT22;6550;48.650;8.774;2023-07-09T12:04:33;32.70;52.20
12971;DHT22;6550;48.650;8.774;2023-07-09T12:07:01;33.10;52.90
12971;DHT22;6550;48.650;8.774;2023-07-09T12:09:39;33.20;52.10
12971;DHT22;6550;48.650;8.774;2023-07-09T12:12:35;33.20;50.60
12971;DHT22;6550;48.650;8.774;2023-07-09T12:15:11;32.90;49.20
12971;DHT22;6550;48.650;8.774;2023-07-09T12:17:42;33.00;49.70
12971;DHT22;6550;48.650;8.774;2023-07-09T12:20:16;33.00;50.40
12971;DHT22;6550;48.650;8.774;2023-07-09T12:22:44;33.10;49.40
12971;DHT22;6550;48.650;8.774;2023-07-09T12:25:22;33.00;48.80
12971;DHT22;6550;48.650;8.774;2023-07-09T12:27:50;33.20;50.00
12971;DHT22;6550;48.650;8.774;2023-07-09T12:30:17;32.90;49.90
12971;DHT22;6550;48.650;8.774;2023-07-09T12:32:50;32.80;49.20
12971;DHT22;6550;48.650;8.774;2023-07-09T12:35:19;32.60;49.30
12971;DHT22;6550;48.650;8.774;2023-07-09T12:37:48;32.80;52.30
12971;DHT22;6550;48.650;8.774;2023-07-09T12:40:23;33.00;49.60
12971;DHT22;6550;48.650;8.774;2023-07-09T12:42:57;33.40;51.10
12971;DHT22;6550;48.650;8.774;2023-07-09T12:45:24;33.40;49.70
12971;DHT22;6550;48.650;8.774;2023-07-09T12:47:51;33.50;50.80
12971;DHT22;6550;48.650;8.774;2023-07-09T12:50:27;33.60;50.10
12971;DHT22;6550;48.650;8.774;2023-07-09T12:53:02;33.30;46.40
12971;DHT22;6550;48.650;8.774;2023-07-09T12:55:30;33.10;49.20
12971;DHT22;6550;48.650;8.774;2023-07-09T12:58:09;33.50;49.30
12971;DHT22;6550;48.650;8.774;2023-07-09T13:00:37;33.80;48.00
12971;DHT22;6550;48.650;8.774;2023-07-09T13:03:14;33.70;48.40
12971;DHT22;6550;48.650;8.774;2023-07-09T13:06:00;33.90;47.70
12971;DHT22;6550;48.650;8.774;2023-07-09T13:08:32;33.90;48.20
12971;DHT22;6550;48.650;8.774;2023-07-09T13:11:01;34.00;49.00
12971;DHT22;6550;48.650;8.774;2023-07-09T13:13:29;34.30;47.10
12971;DHT22;6550;48.650;8.774;2023-07-09T13:16:00;34.40;48.40
12971;DHT22;6550;48.650;8.774;2023-07-09T13:18:28;34.30;47.80
12971;DHT22;6550;48.650;8.774;2023-07-09T13:20:55;34.40;46.40
12971;DHT22;6550;48.650;8.774;2023-07-09T13:23:28;34.60;46.40
12971;DHT22;6550;48.650;8.774;2023-07-09T13:25:55;34.20;47.50
12971;DHT22;6550;48.650;8.774;2023-07-09T13:28:29;34.40;46.60
12971;DHT22;6550;48.650;8.774;2023-07-09T13:31:09;34.40;47.50
12971;DHT22;6550;48.650;8.774;2023-07-09T13:33:37;34.60;46.60
12971;DHT22;6550;48.650;8.774;2023-07-09T13:36:04;34.60;45.90
12971;DHT22;6550;48.650;8.774;2023-07-09T13:41:18;34.40;45.50
12971;DHT22;6550;48.650;8.774;2023-07-09T13:43:48;34.40;45.20
12971;DHT22;6550;48.650;8.774;2023-07-09T13:46:18;34.80;46.20
12971;DHT22;6550;48.650;8.774;2023-07-09T13:48:45;34.70;46.80
12971;DHT22;6550;48.650;8.774;2023-07-09T13:51:23;34.60;47.40
12971;DHT22;6550;48.650;8.774;2023-07-09T13:53:52;34.40;47.40
12971;DHT22;6550;48.650;8.774;2023-07-09T13:56:19;34.50;46.10
12971;DHT22;6550;48.650;8.774;2023-07-09T13:58:47;34.50;46.00
12971;DHT22;6550;48.650;8.774;2023-07-09T14:01:16;34.60;46.80
12971;DHT22;6550;48.650;8.774;2023-07-09T14:03:45;34.70;46.50
12971;DHT22;6550;48.650;8.774;2023-07-09T14:06:16;34.50;47.00
12971;DHT22;6550;48.650;8.774;2023-07-09T14:08:44;34.80;46.60
12971;DHT22;6550;48.650;8.774;2023-07-09T14:11:16;34.80;46.80
12971;DHT22;6550;48.650;8.774;2023-07-09T14:13:43;34.70;45.80
12971;DHT22;6550;48.650;8.774;2023-07-09T14:16:13;34.90;44.80
12971;DHT22;6550;48.650;8.774;2023-07-09T14:18:41;35.00;45.50
12971;DHT22;6550;48.650;8.774;2023-07-09T14:21:17;34.90;45.20
12971;DHT22;6550;48.650;8.774;2023-07-09T14:23:45;34.70;44.60
12971;DHT22;6550;48.650;8.774;2023-07-09T14:26:12;34.30;46.30
12971;DHT22;6550;48.650;8.774;2023-07-09T14:28:42;34.50;46.60
12971;DHT22;6550;48.650;8.774;2023-07-09T14:31:28;34.50;45.10
12971;DHT22;6550;48.650;8.774;2023-07-09T14:36:49;34.20;46.60
12971;DHT22;6550;48.650;8.774;2023-07-09T14:39:19;34.30;46.30
12971;DHT22;6550;48.650;8.774;2023-07-09T14:41:46;34.30;45.70
12971;DHT22;6550;48.650;8.774;2023-07-09T14:46:57;34.10;44.70
12971;DHT22;6550;48.650;8.774;2023-07-09T14:49:27;34.30;46.80
12971;DHT22;6550;48.650;8.774;2023-07-09T14:51:55;34.50;45.80
12971;DHT22;6550;48.650;8.774;2023-07-09T14:54:29;34.40;47.70
12971;DHT22;6550;48.650;8.774;2023-07-09T14:56:57;34.30;46.00
12971;DHT22;6550;48.650;8.774;2023-07-09T14:59:27;34.10;45.50
12971;DHT22;6550;48.650;8.774;2023-07-09T15:01:54;34.20;46.50
12971;DHT22;6550;48.650;8.774;2023-07-09T15:06:53;34.20;47.00
12971;DHT22;6550;48.650;8.774;2023-07-09T15:09:25;34.10;45.50
12971;DHT22;6550;48.650;8.774;2023-07-09T15:11:58;34.20;47.40
12971;DHT22;6550;48.650;8.774;2023-07-09T15:14:27;34.20;46.00
12971;DHT22;6550;48.650;8.774;2023-07-09T15:16:56;34.10;48.20
12971;DHT22;6550;48.650;8.774;2023-07-09T15:19:29;34.00;48.90
12971;DHT22;6550;48.650;8.774;2023-07-09T15:24:33;34.10;46.40
12971;DHT22;6550;48.650;8.774;2023-07-09T15:27:01;34.00;47.20
12971;DHT22;6550;48.650;8.774;2023-07-09T15:29:31;33.90;46.70
12971;DHT22;6550;48.650;8.774;2023-07-09T15:32:00;33.80;47.70
12971;DHT22;6550;48.650;8.774;2023-07-09T15:34:27;33.60;46.60
12971;DHT22;6550;48.650;8.774;2023-07-09T15:36:56;33.50;46.50
12971;DHT22;6550;48.650;8.774;2023-07-09T15:39:23;33.30;46.90
12971;DHT22;6550;48.650;8.774;2023-07-09T15:41:50;33.30;46.70
12971;DHT22;6550;48.650;8.774;2023-07-09T15:44:19;33.30;46.60
12971;DHT22;6550;48.650;8.774;2023-07-09T15:46:55;33.20;47.70
12971;DHT22;6550;48.650;8.774;2023-07-09T15:49:26;33.20;47.60
12971;DHT22;6550;48.650;8.774;2023-07-09T15:51:53;33.20;49.00
12971;DHT22;6550;48.650;8.774;2023-07-09T15:54:21;33.00;53.80
12971;DHT22;6550;48.650;8.774;2023-07-09T15:56:49;32.40;59.40
12971;DHT22;6550;48.650;8.774;2023-07-09T16:06:51;31.40;64.70
12971;DHT22;6550;48.650;8.774;2023-07-09T16:11:51;31.00;64.60
12971;DHT22;6550;48.650;8.774;2023-07-09T16:14:23;30.60;65.50
12971;DHT22;6550;48.650;8.774;2023-07-09T16:16:52;30.30;67.80
12971;DHT22;6550;48.650;8.774;2023-07-09T16:19:21;30.20;68.00
12971;DHT22;6550;48.650;8.774;2023-07-09T16:21:52;30.00;69.50
12971;DHT22;6550;48.650;8.774;2023-07-09T16:24:32;30.00;63.10
12971;DHT22;6550;48.650;8.774;2023-07-09T16:27:03;30.30;61.90
12971;DHT22;6550;48.650;8.774;2023-07-09T16:29:33;30.80;54.10
12971;DHT22;6550;48.650;8.774;2023-07-09T16:32:01;30.80;53.40
12971;DHT22;6550;48.650;8.774;2023-07-09T16:34:31;31.00;53.40
12971;DHT22;6550;48.650;8.774;2023-07-09T16:36:59;31.00;52.80
12971;DHT22;6550;48.650;8.774;2023-07-09T16:39:41;31.00;53.40
12971;DHT22;6550;48.650;8.774;2023-07-09T16:42:13;31.00;53.90
12971;DHT22;6550;48.650;8.774;2023-07-09T16:44:45;30.90;54.90
12971;DHT22;6550;48.650;8.774;2023-07-09T16:47:18;30.90;55.10
12971;DHT22;6550;48.650;8.774;2023-07-09T16:54:47;31.10;55.20
12971;DHT22;6550;48.650;8.774;2023-07-09T16:57:15;31.20;56.70
12971;DHT22;6550;48.650;8.774;2023-07-09T16:59:43;31.20;56.90
12971;DHT22;6550;48.650;8.774;2023-07-09T17:04:48;31.20;57.00
12971;DHT22;6550;48.650;8.774;2023-07-09T17:07:15;31.40;59.10
12971;DHT22;6550;48.650;8.774;2023-07-09T17:09:42;31.70;59.10
12971;DHT22;6550;48.650;8.774;2023-07-09T17:14:38;32.20;58.20
12971;DHT22;6550;48.650;8.774;2023-07-09T17:17:13;32.40;57.80
12971;DHT22;6550;48.650;8.774;2023-07-09T17:19:41;32.70;58.00
12971;DHT22;6550;48.650;8.774;2023-07-09T17:22:32;32.90;56.20
12971;DHT22;6550;48.650;8.774;2023-07-09T17:25:10;33.00;56.40
12971;DHT22;6550;48.650;8.774;2023-07-09T17:27:39;33.00;55.70
12971;DHT22;6550;48.650;8.774;2023-07-09T17:30:12;32.70;56.90
12971;DHT22;6550;48.650;8.774;2023-07-09T17:32:41;32.60;56.90
12971;DHT22;6550;48.650;8.774;2023-07-09T17:40:24;32.60;57.90
12971;DHT22;6550;48.650;8.774;2023-07-09T17:43:19;32.30;57.90
12971;DHT22;6550;48.650;8.774;2023-07-09T17:45:47;32.40;58.30
12971;DHT22;6550;48.650;8.774;2023-07-09T17:48:16;32.30;57.70
12971;DHT22;6550;48.650;8.774;2023-07-09T17:50:44;32.30;58.60
12971;DHT22;6550;48.650;8.774;2023-07-09T17:53:24;32.40;58.30
12971;DHT22;6550;48.650;8.774;2023-07-09T17:55:51;32.50;59.40
12971;DHT22;6550;48.650;8.774;2023-07-09T17:58:43;32.40;59.00